sensor_id;sensor_type;location;lat;lon;timestamp;P1;durP1;ratioP1;P2;durP2;ratioP2
2408;SDS011;8463;48.094;7.970;2023-07-24T00:01:04;6.53;;;5.90;;
2408;SDS011;8463;48.094;7.970;2023-07-24T00:03:30;8.33;;;6.23;;
2408;SDS011;8463;48.094;7.970;2023-07-24T00:05:59;7.70;;;5.27;;
2408;SDS011;8463;48.094;7.970;2023-07-24T00:08:24;7.23;;;5.63;;
2408;SDS011;8463;48.094;7.970;2023-07-24T00:10:50;7.73;;;5.50;;
2408;SDS011;8463;48.094;7.970;2023-07-24T00:13:16;9.60;;;6.20;;
2408;SDS011;8463;48.094;7.970;2023-07-24T00:15:41;7.57;;;5.80;;
2408;SDS011;8463;48.094;7.970;2023-07-24T00:18:07;5.90;;;5.20;;
2408;SDS011;8463;48.094;7.970;2023-07-24T00:20:35;6.97;;;5.83;;
2408;SDS011;8463;48.094;7.970;2023-07-24T00:23:00;6.93;;;5.90;;
2408;SDS011;8463;48.094;7.970;2023-07-24T00:25:26;6.87;;;5.47;;
2408;SDS011;8463;48.094;7.970;2023-07-24T00:27:58;7.57;;;5.70;;
2408;SDS011;8463;48.094;7.970;2023-07-24T00:30:23;6.30;;;5.00;;
2408;SDS011;8463;48.094;7.970;2023-07-24T00:32:49;8.40;;;6.20;;
2408;SDS011;8463;48.094;7.970;2023-07-24T00:35:15;7.30;;;5.30;;
2408;SDS011;8463;48.094;7.970;2023-07-24T00:37:41;6.90;;;5.53;;
2408;SDS011;8463;48.094;7.970;2023-07-24T00:40:06;7.37;;;4.93;;
2408;SDS011;8463;48.094;7.970;2023-07-24T00:42:33;8.10;;;5.87;;
2408;SDS011;8463;48.094;7.970;2023-07-24T00:44:59;7.30;;;5.40;;
2408;SDS011;8463;48.094;7.970;2023-07-24T00:47:25;8.90;;;5.80;;
2408;SDS011;8463;48.094;7.970;2023-07-24T00:49:51;6.90;;;5.60;;
2408;SDS011;8463;48.094;7.970;2023-07-24T00:52:18;8.30;;;6.10;;
2408;SDS011;8463;48.094;7.970;2023-07-24T00:54:44;7.97;;;5.80;;
2408;SDS011;8463;48.094;7.970;2023-07-24T00:57:11;6.57;;;5.33;;
2408;SDS011;8463;48.094;7.970;2023-07-24T00:59:37;6.10;;;5.50;;
2408;SDS011;8463;48.094;7.970;2023-07-24T01:02:12;11.57;;;6.33;;
2408;SDS011;8463;48.094;7.970;2023-07-24T01:04:42;8.73;;;5.87;;
2408;SDS011;8463;48.094;7.970;2023-07-24T01:07:09;7.20;;;5.80;;
2408;SDS011;8463;48.094;7.970;2023-07-24T01:09:35;8.33;;;6.93;;
2408;SDS011;8463;48.094;7.970;2023-07-24T01:14:52;7.33;;;5.50;;
2408;SDS011;8463;48.094;7.970;2023-07-24T01:17:27;7.50;;;6.00;;
2408;SDS011;8463;48.094;7.970;2023-07-24T01:20:00;7.23;;;5.70;;
2408;SDS011;8463;48.094;7.970;2023-07-24T01:27:42;8.20;;;5.70;;
2408;SDS011;8463;48.094;7.970;2023-07-24T01:30:09;7.60;;;5.80;;
2408;SDS011;8463;48.094;7.970;2023-07-24T01:32:36;7.97;;;5.97;;
2408;SDS011;8463;48.094;7.970;2023-07-24T01:35:02;9.37;;;6.20;;
2408;SDS011;8463;48.094;7.970;2023-07-24T01:37:29;7.93;;;5.80;;
2408;SDS011;8463;48.094;7.970;2023-07-24T01:39:56;9.07;;;5.10;;
2408;SDS011;8463;48.094;7.970;2023-07-24T01:42:23;7.77;;;6.10;;
2408;SDS011;8463;48.094;7.970;2023-07-24T01:44:53;8.80;;;6.13;;
2408;SDS011;8463;48.094;7.970;2023-07-24T01:47:20;9.17;;;5.90;;
2408;SDS011;8463;48.094;7.970;2023-07-24T01:49:50;7.10;;;5.70;;
2408;SDS011;8463;48.094;7.970;2023-07-24T01:52:15;6.73;;;5.60;;
2408;SDS011;8463;48.094;7.970;2023-07-24T01:54:48;7.70;;;5.90;;
2408;SDS011;8463;48.094;7.970;2023-07-24T01:57:15;7.70;;;5.80;;
2408;SDS011;8463;48.094;7.970;2023-07-24T01:59:40;8.03;;;6.13;;
2408;SDS011;8463;48.094;7.970;2023-07-24T02:02:06;8.00;;;5.43;;
2408;SDS011;8463;48.094;7.970;2023-07-24T02:04:34;10.37;;;7.10;;
2408;SDS011;8463;48.094;7.970;2023-07-24T02:07:00;8.23;;;5.63;;
2408;SDS011;8463;48.094;7.970;2023-07-24T02:09:25;8.13;;;6.00;;
2408;SDS011;8463;48.094;7.970;2023-07-24T02:11:51;8.10;;;6.40;;
2408;SDS011;8463;48.094;7.970;2023-07-24T02:14:17;9.07;;;5.90;;
2408;SDS011;8463;48.094;7.970;2023-07-24T02:16:43;7.20;;;6.10;;
2408;SDS011;8463;48.094;7.970;2023-07-24T02:19:09;6.33;;;5.23;;
2408;SDS011;8463;48.094;7.970;2023-07-24T02:21:34;7.80;;;5.87;;
2408;SDS011;8463;48.094;7.970;2023-07-24T02:24:02;7.23;;;5.77;;
2408;SDS011;8463;48.094;7.970;2023-07-24T02:26:30;7.90;;;5.13;;
2408;SDS011;8463;48.094;7.970;2023-07-24T02:28:55;8.60;;;6.40;;
2408;SDS011;8463;48.094;7.970;2023-07-24T02:31:21;8.03;;;5.80;;
2408;SDS011;8463;48.094;7.970;2023-07-24T02:33:47;8.50;;;5.63;;
2408;SDS011;8463;48.094;7.970;2023-07-24T02:36:13;7.43;;;5.67;;
2408;SDS011;8463;48.094;7.970;2023-07-24T02:38:39;8.10;;;6.13;;
2408;SDS011;8463;48.094;7.970;2023-07-24T02:41:04;6.43;;;5.23;;
2408;SDS011;8463;48.094;7.970;2023-07-24T02:43:30;6.33;;;5.53;;
2408;SDS011;8463;48.094;7.970;2023-07-24T02:45:59;9.80;;;6.60;;
2408;SDS011;8463;48.094;7.970;2023-07-24T02:48:26;9.60;;;6.20;;
2408;SDS011;8463;48.094;7.970;2023-07-24T02:50:52;8.83;;;6.60;;
2408;SDS011;8463;48.094;7.970;2023-07-24T02:53:18;7.97;;;5.80;;
2408;SDS011;8463;48.094;7.970;2023-07-24T02:55:43;9.23;;;7.13;;
2408;SDS011;8463;48.094;7.970;2023-07-24T02:58:10;7.53;;;5.47;;
2408;SDS011;8463;48.094;7.970;2023-07-24T03:00:37;8.13;;;6.30;;
2408;SDS011;8463;48.094;7.970;2023-07-24T03:03:03;8.63;;;6.30;;
2408;SDS011;8463;48.094;7.970;2023-07-24T03:05:28;6.43;;;5.83;;
2408;SDS011;8463;48.094;7.970;2023-07-24T03:07:54;8.83;;;6.50;;
2408;SDS011;8463;48.094;7.970;2023-07-24T03:10:20;8.47;;;6.20;;
2408;SDS011;8463;48.094;7.970;2023-07-24T03:12:45;8.13;;;5.97;;
2408;SDS011;8463;48.094;7.970;2023-07-24T03:15:11;10.53;;;5.93;;
2408;SDS011;8463;48.094;7.970;2023-07-24T03:17:37;8.97;;;6.30;;
2408;SDS011;8463;48.094;7.970;2023-07-24T03:20:17;9.93;;;6.80;;
2408;SDS011;8463;48.094;7.970;2023-07-24T03:22:46;8.60;;;6.70;;
2408;SDS011;8463;48.094;7.970;2023-07-24T03:25:11;9.50;;;6.20;;
2408;SDS011;8463;48.094;7.970;2023-07-24T03:27:38;8.33;;;6.47;;
2408;SDS011;8463;48.094;7.970;2023-07-24T03:30:06;7.90;;;6.73;;
2408;SDS011;8463;48.094;7.970;2023-07-24T03:32:32;6.50;;;5.63;;
2408;SDS011;8463;48.094;7.970;2023-07-24T03:34:57;6.90;;;5.70;;
2408;SDS011;8463;48.094;7.970;2023-07-24T03:37:23;13.07;;;5.93;;
2408;SDS011;8463;48.094;7.970;2023-07-24T03:39:51;10.57;;;5.97;;
2408;SDS011;8463;48.094;7.970;2023-07-24T03:42:31;7.43;;;5.50;;
2408;SDS011;8463;48.094;7.970;2023-07-24T03:44:57;8.97;;;6.80;;
2408;SDS011;8463;48.094;7.970;2023-07-24T03:47:23;9.00;;;6.40;;
2408;SDS011;8463;48.094;7.970;2023-07-24T03:49:49;7.70;;;6.40;;
2408;SDS011;8463;48.094;7.970;2023-07-24T03:52:15;8.07;;;6.90;;
2408;SDS011;8463;48.094;7.970;2023-07-24T03:54:41;8.93;;;6.37;;
2408;SDS011;8463;48.094;7.970;2023-07-24T03:57:13;10.03;;;6.37;;
2408;SDS011;8463;48.094;7.970;2023-07-24T03:59:44;8.37;;;6.73;;
2408;SDS011;8463;48.094;7.970;2023-07-24T04:02:10;10.00;;;6.60;;
2408;SDS011;8463;48.094;7.970;2023-07-24T04:04:38;7.43;;;6.50;;
2408;SDS011;8463;48.094;7.970;2023-07-24T04:07:10;7.60;;;5.70;;
2408;SDS011;8463;48.094;7.970;2023-07-24T04:09:35;8.17;;;6.57;;
2408;SDS011;8463;48.094;7.970;2023-07-24T04:12:01;7.13;;;5.77;;
2408;SDS011;8463;48.094;7.970;2023-07-24T04:14:32;7.83;;;5.67;;
2408;SDS011;8463;48.094;7.970;2023-07-24T04:16:58;9.60;;;5.90;;
2408;SDS011;8463;48.094;7.970;2023-07-24T04:19:23;7.60;;;5.70;;
2408;SDS011;8463;48.094;7.970;2023-07-24T04:21:49;6.43;;;5.80;;
2408;SDS011;8463;48.094;7.970;2023-07-24T04:24:15;7.67;;;5.63;;
2408;SDS011;8463;48.094;7.970;2023-07-24T04:26:42;6.80;;;5.03;;
2408;SDS011;8463;48.094;7.970;2023-07-24T04:29:08;7.50;;;6.20;;
2408;SDS011;8463;48.094;7.970;2023-07-24T04:31:33;6.27;;;5.33;;
2408;SDS011;8463;48.094;7.970;2023-07-24T04:33:59;8.00;;;6.40;;
2408;SDS011;8463;48.094;7.970;2023-07-24T04:36:25;9.43;;;7.03;;
2408;SDS011;8463;48.094;7.970;2023-07-24T04:38:50;8.33;;;6.20;;
2408;SDS011;8463;48.094;7.970;2023-07-24T04:41:16;6.83;;;5.73;;
2408;SDS011;8463;48.094;7.970;2023-07-24T04:43:42;10.00;;;6.63;;
2408;SDS011;8463;48.094;7.970;2023-07-24T04:46:08;7.53;;;6.10;;
2408;SDS011;8463;48.094;7.970;2023-07-24T04:48:34;8.53;;;5.90;;
2408;SDS011;8463;48.094;7.970;2023-07-24T04:51:05;6.77;;;5.60;;
2408;SDS011;8463;48.094;7.970;2023-07-24T04:53:31;10.07;;;6.80;;
2408;SDS011;8463;48.094;7.970;2023-07-24T04:55:56;7.40;;;5.53;;
2408;SDS011;8463;48.094;7.970;2023-07-24T04:58:22;5.20;;;4.27;;
2408;SDS011;8463;48.094;7.970;2023-07-24T05:00:47;8.70;;;6.57;;
2408;SDS011;8463;48.094;7.970;2023-07-24T05:03:13;9.70;;;5.80;;
2408;SDS011;8463;48.094;7.970;2023-07-24T05:05:41;7.70;;;5.87;;
2408;SDS011;8463;48.094;7.970;2023-07-24T05:08:13;7.93;;;5.73;;
2408;SDS011;8463;48.094;7.970;2023-07-24T05:10:41;7.60;;;6.40;;
2408;SDS011;8463;48.094;7.970;2023-07-24T05:13:07;9.10;;;7.83;;
2408;SDS011;8463;48.094;7.970;2023-07-24T05:15:32;8.63;;;6.27;;
2408;SDS011;8463;48.094;7.970;2023-07-24T05:18:00;10.40;;;6.57;;
2408;SDS011;8463;48.094;7.970;2023-07-24T05:20:32;8.50;;;6.40;;
2408;SDS011;8463;48.094;7.970;2023-07-24T05:22:57;6.23;;;5.63;;
2408;SDS011;8463;48.094;7.970;2023-07-24T05:25:23;9.37;;;7.00;;
2408;SDS011;8463;48.094;7.970;2023-07-24T05:27:54;8.80;;;6.40;;
2408;SDS011;8463;48.094;7.970;2023-07-24T05:30:19;8.23;;;5.60;;
2408;SDS011;8463;48.094;7.970;2023-07-24T05:32:46;10.13;;;6.73;;
2408;SDS011;8463;48.094;7.970;2023-07-24T05:35:11;7.73;;;6.70;;
2408;SDS011;8463;48.094;7.970;2023-07-24T05:37:38;7.40;;;6.70;;
2408;SDS011;8463;48.094;7.970;2023-07-24T05:40:03;7.87;;;7.07;;
2408;SDS011;8463;48.094;7.970;2023-07-24T05:42:30;10.37;;;7.40;;
2408;SDS011;8463;48.094;7.970;2023-07-24T05:44:55;9.00;;;6.17;;
2408;SDS011;8463;48.094;7.970;2023-07-24T05:47:22;7.50;;;6.33;;
2408;SDS011;8463;48.094;7.970;2023-07-24T05:49:47;7.97;;;6.47;;
2408;SDS011;8463;48.094;7.970;2023-07-24T05:52:13;9.23;;;6.80;;
2408;SDS011;8463;48.094;7.970;2023-07-24T05:54:38;7.33;;;6.40;;
2408;SDS011;8463;48.094;7.970;2023-07-24T05:57:04;10.20;;;6.87;;
2408;SDS011;8463;48.094;7.970;2023-07-24T05:59:30;8.93;;;7.70;;
2408;SDS011;8463;48.094;7.970;2023-07-24T06:01:58;7.93;;;6.73;;
2408;SDS011;8463;48.094;7.970;2023-07-24T06:04:24;7.30;;;6.13;;
2408;SDS011;8463;48.094;7.970;2023-07-24T06:06:49;8.73;;;6.60;;
2408;SDS011;8463;48.094;7.970;2023-07-24T06:09:21;9.33;;;6.13;;
2408;SDS011;8463;48.094;7.970;2023-07-24T06:11:46;8.30;;;7.00;;
2408;SDS011;8463;48.094;7.970;2023-07-24T06:14:12;8.30;;;6.30;;
2408;SDS011;8463;48.094;7.970;2023-07-24T06:16:38;10.57;;;7.00;;
2408;SDS011;8463;48.094;7.970;2023-07-24T06:19:06;10.13;;;7.30;;
2408;SDS011;8463;48.094;7.970;2023-07-24T06:21:32;9.50;;;7.70;;
2408;SDS011;8463;48.094;7.970;2023-07-24T06:23:58;8.13;;;6.10;;
2408;SDS011;8463;48.094;7.970;2023-07-24T06:26:27;9.77;;;7.63;;
2408;SDS011;8463;48.094;7.970;2023-07-24T06:28:52;9.50;;;6.67;;
2408;SDS011;8463;48.094;7.970;2023-07-24T06:31:18;7.93;;;6.20;;
2408;SDS011;8463;48.094;7.970;2023-07-24T06:33:43;8.50;;;7.33;;
2408;SDS011;8463;48.094;7.970;2023-07-24T06:36:11;8.87;;;6.90;;
2408;SDS011;8463;48.094;7.970;2023-07-24T06:38:37;8.37;;;6.50;;
2408;SDS011;8463;48.094;7.970;2023-07-24T06:41:03;8.67;;;6.33;;
2408;SDS011;8463;48.094;7.970;2023-07-24T06:43:29;8.50;;;6.60;;
2408;SDS011;8463;48.094;7.970;2023-07-24T06:45:54;9.33;;;6.20;;
2408;SDS011;8463;48.094;7.970;2023-07-24T06:48:22;7.47;;;5.40;;
2408;SDS011;8463;48.094;7.970;2023-07-24T06:50:48;9.10;;;5.67;;
2408;SDS011;8463;48.094;7.970;2023-07-24T06:53:13;5.83;;;4.37;;
2408;SDS011;8463;48.094;7.970;2023-07-24T06:55:39;5.90;;;3.63;;
2408;SDS011;8463;48.094;7.970;2023-07-24T06:58:08;3.60;;;3.20;;
2408;SDS011;8463;48.094;7.970;2023-07-24T07:00:34;5.90;;;4.17;;
2408;SDS011;8463;48.094;7.970;2023-07-24T07:03:00;4.93;;;3.60;;
2408;SDS011;8463;48.094;7.970;2023-07-24T07:05:25;4.57;;;3.13;;
2408;SDS011;8463;48.094;7.970;2023-07-24T07:07:52;7.53;;;3.60;;
2408;SDS011;8463;48.094;7.970;2023-07-24T07:10:17;4.40;;;3.23;;
2408;SDS011;8463;48.094;7.970;2023-07-24T07:12:45;3.83;;;2.80;;
2408;SDS011;8463;48.094;7.970;2023-07-24T07:15:10;6.53;;;3.30;;
2408;SDS011;8463;48.094;7.970;2023-07-24T07:17:36;3.70;;;3.03;;
2408;SDS011;8463;48.094;7.970;2023-07-24T07:20:02;6.07;;;3.90;;
2408;SDS011;8463;48.094;7.970;2023-07-24T07:22:28;5.03;;;3.70;;
2408;SDS011;8463;48.094;7.970;2023-07-24T07:24:53;4.60;;;3.47;;
2408;SDS011;8463;48.094;7.970;2023-07-24T07:27:19;9.97;;;5.40;;
2408;SDS011;8463;48.094;7.970;2023-07-24T07:29:44;5.83;;;4.00;;
2408;SDS011;8463;48.094;7.970;2023-07-24T07:32:10;5.23;;;4.57;;
2408;SDS011;8463;48.094;7.970;2023-07-24T07:34:36;7.40;;;4.17;;
2408;SDS011;8463;48.094;7.970;2023-07-24T07:37:03;5.03;;;3.30;;
2408;SDS011;8463;48.094;7.970;2023-07-24T07:39:30;5.60;;;4.30;;
2408;SDS011;8463;48.094;7.970;2023-07-24T07:41:56;8.33;;;4.13;;
2408;SDS011;8463;48.094;7.970;2023-07-24T07:44:21;5.40;;;3.40;;
2408;SDS011;8463;48.094;7.970;2023-07-24T07:46:47;4.83;;;4.07;;
2408;SDS011;8463;48.094;7.970;2023-07-24T07:49:13;6.53;;;3.50;;
2408;SDS011;8463;48.094;7.970;2023-07-24T07:51:38;5.87;;;4.23;;
2408;SDS011;8463;48.094;7.970;2023-07-24T07:54:04;4.87;;;4.03;;
2408;SDS011;8463;48.094;7.970;2023-07-24T07:56:30;4.90;;;4.17;;
2408;SDS011;8463;48.094;7.970;2023-07-24T07:58:55;8.77;;;4.20;;
2408;SDS011;8463;48.094;7.970;2023-07-24T08:01:21;4.47;;;3.60;;
2408;SDS011;8463;48.094;7.970;2023-07-24T08:03:46;5.87;;;5.00;;
2408;SDS011;8463;48.094;7.970;2023-07-24T08:06:12;5.27;;;4.13;;
2408;SDS011;8463;48.094;7.970;2023-07-24T08:08:38;4.73;;;3.33;;
2408;SDS011;8463;48.094;7.970;2023-07-24T08:11:04;4.80;;;4.10;;
2408;SDS011;8463;48.094;7.970;2023-07-24T08:13:39;5.53;;;3.90;;
2408;SDS011;8463;48.094;7.970;2023-07-24T08:16:12;6.33;;;4.10;;
2408;SDS011;8463;48.094;7.970;2023-07-24T08:18:45;6.97;;;3.97;;
2408;SDS011;8463;48.094;7.970;2023-07-24T08:21:12;5.67;;;4.13;;
2408;SDS011;8463;48.094;7.970;2023-07-24T08:23:38;4.77;;;3.53;;
2408;SDS011;8463;48.094;7.970;2023-07-24T08:26:07;4.83;;;3.90;;
2408;SDS011;8463;48.094;7.970;2023-07-24T08:28:33;5.47;;;4.93;;
2408;SDS011;8463;48.094;7.970;2023-07-24T08:31:07;5.53;;;4.23;;
2408;SDS011;8463;48.094;7.970;2023-07-24T08:33:33;5.77;;;4.50;;
2408;SDS011;8463;48.094;7.970;2023-07-24T08:35:59;4.87;;;4.47;;
2408;SDS011;8463;48.094;7.970;2023-07-24T08:38:26;6.80;;;4.43;;
2408;SDS011;8463;48.094;7.970;2023-07-24T08:41:00;6.07;;;3.73;;
2408;SDS011;8463;48.094;7.970;2023-07-24T08:43:30;6.63;;;4.43;;
2408;SDS011;8463;48.094;7.970;2023-07-24T08:45:57;5.83;;;4.70;;
2408;SDS011;8463;48.094;7.970;2023-07-24T08:48:24;4.37;;;3.90;;
2408;SDS011;8463;48.094;7.970;2023-07-24T08:51:04;5.10;;;4.37;;
2408;SDS011;8463;48.094;7.970;2023-07-24T08:53:39;6.57;;;4.57;;
2408;SDS011;8463;48.094;7.970;2023-07-24T08:56:06;6.37;;;4.67;;
2408;SDS011;8463;48.094;7.970;2023-07-24T08:58:34;7.20;;;4.20;;
2408;SDS011;8463;48.094;7.970;2023-07-24T09:01:01;5.10;;;4.27;;
2408;SDS011;8463;48.094;7.970;2023-07-24T09:03:27;8.10;;;4.30;;
2408;SDS011;8463;48.094;7.970;2023-07-24T09:05:53;7.50;;;4.57;;
2408;SDS011;8463;48.094;7.970;2023-07-24T09:08:35;6.60;;;5.27;;
2408;SDS011;8463;48.094;7.970;2023-07-24T09:11:03;7.47;;;4.20;;
2408;SDS011;8463;48.094;7.970;2023-07-24T09:13:31;7.23;;;5.37;;
2408;SDS011;8463;48.094;7.970;2023-07-24T09:15:57;9.13;;;5.17;;
2408;SDS011;8463;48.094;7.970;2023-07-24T09:18:24;7.07;;;5.10;;
2408;SDS011;8463;48.094;7.970;2023-07-24T09:20:50;6.70;;;4.97;;
2408;SDS011;8463;48.094;7.970;2023-07-24T09:23:16;6.00;;;4.47;;
2408;SDS011;8463;48.094;7.970;2023-07-24T09:25:55;8.70;;;5.13;;
2408;SDS011;8463;48.094;7.970;2023-07-24T09:28:21;6.30;;;5.57;;
2408;SDS011;8463;48.094;7.970;2023-07-24T09:30:54;7.23;;;5.43;;
2408;SDS011;8463;48.094;7.970;2023-07-24T09:33:40;8.73;;;6.13;;
2408;SDS011;8463;48.094;7.970;2023-07-24T09:36:07;8.93;;;6.53;;
2408;SDS011;8463;48.094;7.970;2023-07-24T09:38:35;5.80;;;5.20;;
2408;SDS011;8463;48.094;7.970;2023-07-24T09:41:02;8.17;;;4.83;;
2408;SDS011;8463;48.094;7.970;2023-07-24T09:43:29;5.63;;;4.70;;
2408;SDS011;8463;48.094;7.970;2023-07-24T09:45:56;7.80;;;5.43;;
2408;SDS011;8463;48.094;7.970;2023-07-24T09:48:23;7.80;;;5.17;;
2408;SDS011;8463;48.094;7.970;2023-07-24T09:50:54;4.70;;;3.87;;
2408;SDS011;8463;48.094;7.970;2023-07-24T09:56:09;8.77;;;6.13;;
2408;SDS011;8463;48.094;7.970;2023-07-24T09:58:36;9.17;;;5.87;;
2408;SDS011;8463;48.094;7.970;2023-07-24T10:01:05;6.47;;;5.87;;
2408;SDS011;8463;48.094;7.970;2023-07-24T10:03:38;5.30;;;4.77;;
2408;SDS011;8463;48.094;7.970;2023-07-24T10:06:07;6.90;;;5.33;;
2408;SDS011;8463;48.094;7.970;2023-07-24T10:08:36;8.43;;;6.23;;
2408;SDS011;8463;48.094;7.970;2023-07-24T10:11:10;8.53;;;6.10;;
2408;SDS011;8463;48.094;7.970;2023-07-24T10:13:37;7.53;;;5.80;;
2408;SDS011;8463;48.094;7.970;2023-07-24T10:16:07;7.70;;;4.70;;
2408;SDS011;8463;48.094;7.970;2023-07-24T10:18:34;7.47;;;5.53;;
2408;SDS011;8463;48.094;7.970;2023-07-24T10:21:07;7.77;;;4.30;;
2408;SDS011;8463;48.094;7.970;2023-07-24T10:23:35;4.67;;;3.20;;
2408;SDS011;8463;48.094;7.970;2023-07-24T10:26:05;4.00;;;3.30;;
2408;SDS011;8463;48.094;7.970;2023-07-24T10:28:32;3.40;;;3.10;;
2408;SDS011;8463;48.094;7.970;2023-07-24T10:31:00;4.20;;;3.50;;
2408;SDS011;8463;48.094;7.970;2023-07-24T10:33:29;4.10;;;3.17;;
2408;SDS011;8463;48.094;7.970;2023-07-24T10:36:05;4.37;;;3.13;;
2408;SDS011;8463;48.094;7.970;2023-07-24T10:38:36;5.73;;;3.23;;
2408;SDS011;8463;48.094;7.970;2023-07-24T10:41:03;4.50;;;3.77;;
2408;SDS011;8463;48.094;7.970;2023-07-24T10:43:39;5.40;;;3.07;;
2408;SDS011;8463;48.094;7.970;2023-07-24T10:46:06;4.80;;;3.37;;
2408;SDS011;8463;48.094;7.970;2023-07-24T10:48:35;5.90;;;4.30;;
2408;SDS011;8463;48.094;7.970;2023-07-24T10:51:08;6.20;;;4.87;;
2408;SDS011;8463;48.094;7.970;2023-07-24T10:53:40;7.63;;;5.57;;
2408;SDS011;8463;48.094;7.970;2023-07-24T10:56:12;5.80;;;4.50;;
2408;SDS011;8463;48.094;7.970;2023-07-24T10:58:39;4.40;;;4.00;;
2408;SDS011;8463;48.094;7.970;2023-07-24T11:01:05;6.27;;;5.00;;
2408;SDS011;8463;48.094;7.970;2023-07-24T11:03:38;5.50;;;4.27;;
2408;SDS011;8463;48.094;7.970;2023-07-24T11:06:11;4.60;;;4.07;;
2408;SDS011;8463;48.094;7.970;2023-07-24T11:08:56;5.57;;;4.57;;
2408;SDS011;8463;48.094;7.970;2023-07-24T11:11:30;5.20;;;3.60;;
2408;SDS011;8463;48.094;7.970;2023-07-24T11:13:57;6.47;;;3.67;;
2408;SDS011;8463;48.094;7.970;2023-07-24T11:16:27;4.10;;;3.27;;
2408;SDS011;8463;48.094;7.970;2023-07-24T11:18:56;5.20;;;3.63;;
2408;SDS011;8463;48.094;7.970;2023-07-24T11:21:27;3.73;;;3.07;;
2408;SDS011;8463;48.094;7.970;2023-07-24T11:23:54;2.97;;;2.60;;
2408;SDS011;8463;48.094;7.970;2023-07-24T11:26:21;4.30;;;2.73;;
2408;SDS011;8463;48.094;7.970;2023-07-24T11:28:49;3.43;;;2.60;;
2408;SDS011;8463;48.094;7.970;2023-07-24T11:31:16;3.83;;;2.70;;
2408;SDS011;8463;48.094;7.970;2023-07-24T11:33:47;3.40;;;2.33;;
2408;SDS011;8463;48.094;7.970;2023-07-24T11:36:14;2.77;;;2.50;;
2408;SDS011;8463;48.094;7.970;2023-07-24T11:38:40;3.70;;;3.00;;
2408;SDS011;8463;48.094;7.970;2023-07-24T11:41:14;4.70;;;3.17;;
2408;SDS011;8463;48.094;7.970;2023-07-24T11:43:47;2.67;;;2.10;;
2408;SDS011;8463;48.094;7.970;2023-07-24T11:46:24;3.23;;;2.93;;
2408;SDS011;8463;48.094;7.970;2023-07-24T11:48:51;3.70;;;2.70;;
2408;SDS011;8463;48.094;7.970;2023-07-24T11:51:18;3.20;;;2.37;;
2408;SDS011;8463;48.094;7.970;2023-07-24T11:53:44;2.43;;;1.97;;
2408;SDS011;8463;48.094;7.970;2023-07-24T11:56:14;2.53;;;1.70;;
2408;SDS011;8463;48.094;7.970;2023-07-24T11:58:40;4.30;;;1.77;;
2408;SDS011;8463;48.094;7.970;2023-07-24T12:01:07;3.63;;;2.60;;
2408;SDS011;8463;48.094;7.970;2023-07-24T12:03:35;1.93;;;1.77;;
2408;SDS011;8463;48.094;7.970;2023-07-24T12:06:01;2.37;;;1.83;;
2408;SDS011;8463;48.094;7.970;2023-07-24T12:08:30;3.67;;;2.27;;
2408;SDS011;8463;48.094;7.970;2023-07-24T12:11:03;2.50;;;1.67;;
2408;SDS011;8463;48.094;7.970;2023-07-24T12:13:29;2.23;;;2.00;;
2408;SDS011;8463;48.094;7.970;2023-07-24T12:16:00;3.50;;;2.00;;
2408;SDS011;8463;48.094;7.970;2023-07-24T12:18:25;2.40;;;1.60;;
2408;SDS011;8463;48.094;7.970;2023-07-24T12:20:51;2.80;;;1.90;;
2408;SDS011;8463;48.094;7.970;2023-07-24T12:23:16;3.97;;;2.10;;
2408;SDS011;8463;48.094;7.970;2023-07-24T12:25:42;3.53;;;1.97;;
2408;SDS011;8463;48.094;7.970;2023-07-24T12:28:14;4.23;;;2.33;;
2408;SDS011;8463;48.094;7.970;2023-07-24T12:30:39;2.77;;;2.30;;
2408;SDS011;8463;48.094;7.970;2023-07-24T12:33:05;1.90;;;1.80;;
2408;SDS011;8463;48.094;7.970;2023-07-24T12:35:30;3.03;;;2.20;;
2408;SDS011;8463;48.094;7.970;2023-07-24T12:37:59;3.17;;;2.30;;
2408;SDS011;8463;48.094;7.970;2023-07-24T12:40:25;2.93;;;2.37;;
2408;SDS011;8463;48.094;7.970;2023-07-24T12:42:51;2.63;;;2.43;;
2408;SDS011;8463;48.094;7.970;2023-07-24T12:45:17;2.80;;;2.00;;
2408;SDS011;8463;48.094;7.970;2023-07-24T12:47:46;4.30;;;2.90;;
2408;SDS011;8463;48.094;7.970;2023-07-24T12:50:11;3.03;;;2.60;;
2408;SDS011;8463;48.094;7.970;2023-07-24T12:52:37;2.93;;;2.60;;
2408;SDS011;8463;48.094;7.970;2023-07-24T12:55:03;2.80;;;2.33;;
2408;SDS011;8463;48.094;7.970;2023-07-24T12:57:34;3.77;;;2.93;;
2408;SDS011;8463;48.094;7.970;2023-07-24T12:59:59;2.93;;;2.47;;
2408;SDS011;8463;48.094;7.970;2023-07-24T13:02:25;4.20;;;2.60;;
2408;SDS011;8463;48.094;7.970;2023-07-24T13:04:51;3.30;;;2.63;;
2408;SDS011;8463;48.094;7.970;2023-07-24T13:07:17;3.03;;;2.50;;
2408;SDS011;8463;48.094;7.970;2023-07-24T13:09:49;3.10;;;2.80;;
2408;SDS011;8463;48.094;7.970;2023-07-24T13:12:16;3.00;;;2.70;;
2408;SDS011;8463;48.094;7.970;2023-07-24T13:14:42;2.80;;;2.50;;
2408;SDS011;8463;48.094;7.970;2023-07-24T13:17:16;3.37;;;3.07;;
2408;SDS011;8463;48.094;7.970;2023-07-24T13:19:42;2.57;;;2.33;;
2408;SDS011;8463;48.094;7.970;2023-07-24T13:22:08;3.57;;;2.80;;
2408;SDS011;8463;48.094;7.970;2023-07-24T13:24:33;3.33;;;2.43;;
2408;SDS011;8463;48.094;7.970;2023-07-24T13:26:59;3.33;;;3.00;;
2408;SDS011;8463;48.094;7.970;2023-07-24T13:29:25;3.50;;;2.73;;
2408;SDS011;8463;48.094;7.970;2023-07-24T13:31:56;3.23;;;2.80;;
2408;SDS011;8463;48.094;7.970;2023-07-24T13:34:28;3.27;;;2.77;;
2408;SDS011;8463;48.094;7.970;2023-07-24T13:36:57;3.13;;;2.80;;
2408;SDS011;8463;48.094;7.970;2023-07-24T13:39:23;4.10;;;3.30;;
2408;SDS011;8463;48.094;7.970;2023-07-24T13:41:49;4.30;;;3.17;;
2408;SDS011;8463;48.094;7.970;2023-07-24T13:44:14;3.90;;;2.63;;
2408;SDS011;8463;48.094;7.970;2023-07-24T13:46:41;6.17;;;3.80;;
2408;SDS011;8463;48.094;7.970;2023-07-24T13:49:06;7.53;;;3.60;;
2408;SDS011;8463;48.094;7.970;2023-07-24T13:51:32;5.63;;;4.30;;
2408;SDS011;8463;48.094;7.970;2023-07-24T13:53:58;5.47;;;3.97;;
2408;SDS011;8463;48.094;7.970;2023-07-24T13:56:24;4.87;;;3.97;;
2408;SDS011;8463;48.094;7.970;2023-07-24T13:58:52;4.20;;;3.80;;
2408;SDS011;8463;48.094;7.970;2023-07-24T14:01:17;4.37;;;3.83;;
2408;SDS011;8463;48.094;7.970;2023-07-24T14:03:46;6.30;;;4.40;;
2408;SDS011;8463;48.094;7.970;2023-07-24T14:06:12;6.40;;;4.00;;
2408;SDS011;8463;48.094;7.970;2023-07-24T14:08:38;4.73;;;4.03;;
2408;SDS011;8463;48.094;7.970;2023-07-24T14:11:03;4.73;;;4.23;;
2408;SDS011;8463;48.094;7.970;2023-07-24T14:13:29;5.07;;;4.23;;
2408;SDS011;8463;48.094;7.970;2023-07-24T14:15:55;7.93;;;4.70;;
2408;SDS011;8463;48.094;7.970;2023-07-24T14:18:20;6.13;;;5.00;;
2408;SDS011;8463;48.094;7.970;2023-07-24T14:20:49;6.07;;;4.50;;
2408;SDS011;8463;48.094;7.970;2023-07-24T14:23:17;5.97;;;5.03;;
2408;SDS011;8463;48.094;7.970;2023-07-24T14:25:42;4.97;;;4.10;;
2408;SDS011;8463;48.094;7.970;2023-07-24T14:28:09;4.70;;;3.70;;
2408;SDS011;8463;48.094;7.970;2023-07-24T14:30:35;3.77;;;3.37;;
2408;SDS011;8463;48.094;7.970;2023-07-24T14:33:01;5.00;;;3.30;;
2408;SDS011;8463;48.094;7.970;2023-07-24T14:35:26;4.70;;;3.60;;
2408;SDS011;8463;48.094;7.970;2023-07-24T14:37:53;4.57;;;3.53;;
2408;SDS011;8463;48.094;7.970;2023-07-24T14:40:19;3.30;;;3.00;;
2408;SDS011;8463;48.094;7.970;2023-07-24T14:42:44;4.10;;;3.70;;
2408;SDS011;8463;48.094;7.970;2023-07-24T14:45:10;3.70;;;2.77;;
2408;SDS011;8463;48.094;7.970;2023-07-24T14:47:36;6.57;;;3.53;;
2408;SDS011;8463;48.094;7.970;2023-07-24T14:50:01;4.67;;;2.90;;
2408;SDS011;8463;48.094;7.970;2023-07-24T14:52:27;3.87;;;3.00;;
2408;SDS011;8463;48.094;7.970;2023-07-24T14:54:53;3.83;;;3.27;;
2408;SDS011;8463;48.094;7.970;2023-07-24T14:57:18;3.83;;;3.13;;
2408;SDS011;8463;48.094;7.970;2023-07-24T14:59:44;4.40;;;3.67;;
2408;SDS011;8463;48.094;7.970;2023-07-24T15:02:10;5.00;;;3.87;;
2408;SDS011;8463;48.094;7.970;2023-07-24T15:04:39;3.73;;;3.33;;
2408;SDS011;8463;48.094;7.970;2023-07-24T15:07:05;3.30;;;2.80;;
2408;SDS011;8463;48.094;7.970;2023-07-24T15:09:31;3.43;;;2.60;;
2408;SDS011;8463;48.094;7.970;2023-07-24T15:11:57;4.73;;;2.30;;
2408;SDS011;8463;48.094;7.970;2023-07-24T15:14:23;4.73;;;2.87;;
2408;SDS011;8463;48.094;7.970;2023-07-24T15:16:50;3.10;;;2.73;;
2408;SDS011;8463;48.094;7.970;2023-07-24T15:19:16;4.30;;;2.40;;
2408;SDS011;8463;48.094;7.970;2023-07-24T15:21:41;3.13;;;2.50;;
2408;SDS011;8463;48.094;7.970;2023-07-24T15:24:07;6.80;;;2.63;;
2408;SDS011;8463;48.094;7.970;2023-07-24T15:26:33;3.30;;;2.50;;